Ana Sayfa
METAR-TAF:

METAR-TAF

Havaalanları :

Waco, Teksas, Amerika Birleşik Devletleri

Enlem: 31-37-02N, Boylam: 097-13-40W, yükseklik: 157 m

Güncel hava durumu gözlemi

Rapor saat 21:51 UTC de 31 dakika önce yapıldı.
Rüzgar doğu/kuzeydoğudan 8 kt
Sıcaklık 31°C
Nem 33%
Basınç 1018 hPa
Görüş mesafesi: 16.1 km
Açık gökyüzü

METAR: KACT 302151Z 07008KT 10SM CLR 31/13 A3005 RMK AO2 SLP169 T03060128

Saat: 17:22 (22:22 UTC)

Tahmin

Rapor saat 20:50 UTC de 1 saat ve 32 dakika önce yapıldı.
Ayın 30'si saat 21 UTC'den ayın 31'si saat 18 UTC'ye kadar geçerli Tahmin
Rüzgar doğu/güneydoğudan 7 kt
Görüş mesafesi: 10 km
5000 ft yükseklikte az bulutlu
25000 ft yükseklikte parçalı bulutlu
Ayın 31'si saat 1100 UTC'den
Rüzgar doğu/güneydoğudan 4 kt
Görüş mesafesi: 10 km
8000 ft yükseklikte parçalı bulutlu
25000 ft yükseklikte parçalı çok bulutlu

TAF: KACT 302050Z 3021/3118 11007KT P6SM FEW050 SCT250 FM311100 12004KT P6SM SCT080 BKN250

4.000'den fazla havaalanı için hava durumu gözlemleri ve tahminleri (METAR ve TAF raporları).

Kullanılabilir istasyonlar harita üzerinde sarı ve kırmızı noktalarla gösterilir.

İstasyonun adını görmek için fareyi noktanın üzerinde gezdirin.

Sonrasında hava gözlem ve tahminlerini görmek için tıklayın.

Haritayı değiştirmek için: yaklaştırmak için siyah artı işaretli yeşil düğmeye ve uzaklaştırmak için de eksi işaretli düğmeye hızla tıklayın; bitişik haritalar için yeşil okları kullanın.


METAR-TAF: